sensor_id;sensor_type;location;lat;lon;timestamp;P1;durP1;ratioP1;P2;durP2;ratioP2
9413;SDS011;4746;35.664;139.738;2023-03-21T00:01:06;13.53;;;10.83;;
9413;SDS011;4746;35.664;139.738;2023-03-21T00:03:38;11.70;;;10.33;;
9413;SDS011;4746;35.664;139.738;2023-03-21T00:06:08;12.43;;;10.37;;
9413;SDS011;4746;35.664;139.738;2023-03-21T00:08:38;12.03;;;10.20;;
9413;SDS011;4746;35.664;139.738;2023-03-21T00:11:08;11.70;;;9.67;;
9413;SDS011;4746;35.664;139.738;2023-03-21T00:13:37;12.03;;;10.40;;
9413;SDS011;4746;35.664;139.738;2023-03-21T00:16:17;12.07;;;10.20;;
9413;SDS011;4746;35.664;139.738;2023-03-21T00:18:46;12.37;;;10.40;;
9413;SDS011;4746;35.664;139.738;2023-03-21T00:21:18;13.97;;;11.37;;
9413;SDS011;4746;35.664;139.738;2023-03-21T00:23:53;11.10;;;10.00;;
9413;SDS011;4746;35.664;139.738;2023-03-21T00:26:20;12.63;;;10.83;;
9413;SDS011;4746;35.664;139.738;2023-03-21T00:28:49;11.73;;;10.60;;
9413;SDS011;4746;35.664;139.738;2023-03-21T00:31:18;12.83;;;10.97;;
9413;SDS011;4746;35.664;139.738;2023-03-21T00:33:49;12.87;;;11.03;;
9413;SDS011;4746;35.664;139.738;2023-03-21T00:36:17;12.60;;;10.23;;
9413;SDS011;4746;35.664;139.738;2023-03-21T00:38:46;10.97;;;9.90;;
9413;SDS011;4746;35.664;139.738;2023-03-21T00:41:13;11.70;;;10.33;;
9413;SDS011;4746;35.664;139.738;2023-03-21T00:43:41;14.80;;;11.60;;
9413;SDS011;4746;35.664;139.738;2023-03-21T00:46:08;13.37;;;11.43;;
9413;SDS011;4746;35.664;139.738;2023-03-21T00:48:36;11.77;;;10.53;;
9413;SDS011;4746;35.664;139.738;2023-03-21T00:51:09;14.27;;;11.30;;
9413;SDS011;4746;35.664;139.738;2023-03-21T00:53:54;13.80;;;10.63;;
9413;SDS011;4746;35.664;139.738;2023-03-21T00:56:23;13.17;;;11.63;;
9413;SDS011;4746;35.664;139.738;2023-03-21T00:58:50;13.70;;;11.63;;
9413;SDS011;4746;35.664;139.738;2023-03-21T01:01:19;12.77;;;10.83;;
9413;SDS011;4746;35.664;139.738;2023-03-21T01:03:47;15.50;;;11.73;;
9413;SDS011;4746;35.664;139.738;2023-03-21T01:06:28;12.30;;;10.50;;
9413;SDS011;4746;35.664;139.738;2023-03-21T01:08:57;13.80;;;11.37;;
9413;SDS011;4746;35.664;139.738;2023-03-21T01:11:26;12.20;;;11.00;;
9413;SDS011;4746;35.664;139.738;2023-03-21T01:13:54;13.60;;;11.30;;
9413;SDS011;4746;35.664;139.738;2023-03-21T01:16:23;13.53;;;11.20;;
9413;SDS011;4746;35.664;139.738;2023-03-21T01:18:51;13.43;;;11.10;;
9413;SDS011;4746;35.664;139.738;2023-03-21T01:21:20;15.80;;;11.63;;
9413;SDS011;4746;35.664;139.738;2023-03-21T01:23:48;15.13;;;11.70;;
9413;SDS011;4746;35.664;139.738;2023-03-21T01:26:16;14.30;;;11.80;;
9413;SDS011;4746;35.664;139.738;2023-03-21T01:28:44;13.97;;;11.40;;
9413;SDS011;4746;35.664;139.738;2023-03-21T01:31:13;12.87;;;11.57;;
9413;SDS011;4746;35.664;139.738;2023-03-21T01:33:43;14.67;;;11.27;;
9413;SDS011;4746;35.664;139.738;2023-03-21T01:36:15;13.60;;;11.73;;
9413;SDS011;4746;35.664;139.738;2023-03-21T01:38:49;15.00;;;12.37;;
9413;SDS011;4746;35.664;139.738;2023-03-21T01:44:00;15.73;;;11.93;;
9413;SDS011;4746;35.664;139.738;2023-03-21T01:49:21;15.80;;;12.50;;
9413;SDS011;4746;35.664;139.738;2023-03-21T01:52:04;13.50;;;11.50;;
9413;SDS011;4746;35.664;139.738;2023-03-21T01:54:37;16.33;;;12.73;;
9413;SDS011;4746;35.664;139.738;2023-03-21T01:57:11;17.50;;;13.17;;
9413;SDS011;4746;35.664;139.738;2023-03-21T02:00:04;16.57;;;12.63;;
9413;SDS011;4746;35.664;139.738;2023-03-21T02:02:41;20.60;;;12.30;;
9413;SDS011;4746;35.664;139.738;2023-03-21T02:05:28;14.27;;;12.80;;
9413;SDS011;4746;35.664;139.738;2023-03-21T02:08:17;14.37;;;12.40;;
9413;SDS011;4746;35.664;139.738;2023-03-21T02:10:45;15.20;;;12.63;;
9413;SDS011;4746;35.664;139.738;2023-03-21T02:13:16;13.50;;;12.23;;
9413;SDS011;4746;35.664;139.738;2023-03-21T02:18:37;13.43;;;12.03;;
9413;SDS011;4746;35.664;139.738;2023-03-21T02:27:55;18.17;;;13.05;;
9413;SDS011;4746;35.664;139.738;2023-03-21T02:40:22;23.23;;;13.38;;
9413;SDS011;4746;35.664;139.738;2023-03-21T02:43:03;16.75;;;12.63;;
9413;SDS011;4746;35.664;139.738;2023-03-21T02:45:39;15.55;;;11.70;;
9413;SDS011;4746;35.664;139.738;2023-03-21T02:48:20;19.10;;;12.68;;
9413;SDS011;4746;35.664;139.738;2023-03-21T02:51:06;16.90;;;13.02;;
9413;SDS011;4746;35.664;139.738;2023-03-21T02:53:41;13.77;;;12.32;;
9413;SDS011;4746;35.664;139.738;2023-03-21T02:56:14;16.92;;;12.93;;
9413;SDS011;4746;35.664;139.738;2023-03-21T02:58:44;16.63;;;13.32;;
9413;SDS011;4746;35.664;139.738;2023-03-21T03:01:14;14.02;;;12.27;;
9413;SDS011;4746;35.664;139.738;2023-03-21T03:03:41;15.20;;;11.18;;
9413;SDS011;4746;35.664;139.738;2023-03-21T03:06:14;13.38;;;11.98;;
9413;SDS011;4746;35.664;139.738;2023-03-21T03:09:18;17.02;;;12.02;;
9413;SDS011;4746;35.664;139.738;2023-03-21T03:12:29;16.33;;;11.52;;
9413;SDS011;4746;35.664;139.738;2023-03-21T03:26:43;21.05;;;14.10;;
9413;SDS011;4746;35.664;139.738;2023-03-21T03:29:40;18.65;;;14.15;;
9413;SDS011;4746;35.664;139.738;2023-03-21T03:32:20;16.80;;;13.93;;
9413;SDS011;4746;35.664;139.738;2023-03-21T03:35:09;18.08;;;14.93;;
9413;SDS011;4746;35.664;139.738;2023-03-21T03:37:42;17.50;;;14.13;;
9413;SDS011;4746;35.664;139.738;2023-03-21T03:40:38;17.13;;;14.68;;
9413;SDS011;4746;35.664;139.738;2023-03-21T03:43:17;18.55;;;15.75;;
9413;SDS011;4746;35.664;139.738;2023-03-21T03:46:07;18.85;;;16.73;;
9413;SDS011;4746;35.664;139.738;2023-03-21T03:48:45;21.45;;;17.15;;
9413;SDS011;4746;35.664;139.738;2023-03-21T03:51:41;22.20;;;16.95;;
9413;SDS011;4746;35.664;139.738;2023-03-21T03:54:22;19.35;;;17.23;;
9413;SDS011;4746;35.664;139.738;2023-03-21T03:57:07;19.98;;;17.88;;
9413;SDS011;4746;35.664;139.738;2023-03-21T03:59:42;20.45;;;17.05;;
9413;SDS011;4746;35.664;139.738;2023-03-21T04:02:12;21.30;;;19.08;;
9413;SDS011;4746;35.664;139.738;2023-03-21T04:04:41;20.42;;;18.33;;
9413;SDS011;4746;35.664;139.738;2023-03-21T04:07:09;15.75;;;14.15;;
9413;SDS011;4746;35.664;139.738;2023-03-21T04:09:36;21.25;;;17.27;;
9413;SDS011;4746;35.664;139.738;2023-03-21T04:12:04;22.83;;;18.48;;
9413;SDS011;4746;35.664;139.738;2023-03-21T04:14:31;18.33;;;15.52;;
9413;SDS011;4746;35.664;139.738;2023-03-21T04:16:59;13.38;;;10.88;;
9413;SDS011;4746;35.664;139.738;2023-03-21T04:19:27;7.75;;;7.03;;
9413;SDS011;4746;35.664;139.738;2023-03-21T04:21:54;10.18;;;7.75;;
9413;SDS011;4746;35.664;139.738;2023-03-21T04:24:22;11.38;;;10.18;;
9413;SDS011;4746;35.664;139.738;2023-03-21T04:26:50;12.95;;;10.75;;
9413;SDS011;4746;35.664;139.738;2023-03-21T04:29:18;12.50;;;10.43;;
9413;SDS011;4746;35.664;139.738;2023-03-21T04:31:46;14.65;;;11.13;;
9413;SDS011;4746;35.664;139.738;2023-03-21T04:34:14;13.77;;;10.80;;
9413;SDS011;4746;35.664;139.738;2023-03-21T04:36:41;13.05;;;9.68;;
9413;SDS011;4746;35.664;139.738;2023-03-21T04:39:13;9.18;;;8.10;;
9413;SDS011;4746;35.664;139.738;2023-03-21T04:41:43;10.18;;;6.18;;
9413;SDS011;4746;35.664;139.738;2023-03-21T04:44:12;6.57;;;5.90;;
9413;SDS011;4746;35.664;139.738;2023-03-21T04:46:42;8.45;;;5.05;;
9413;SDS011;4746;35.664;139.738;2023-03-21T04:49:10;9.82;;;6.50;;
9413;SDS011;4746;35.664;139.738;2023-03-21T04:51:37;8.57;;;6.68;;
9413;SDS011;4746;35.664;139.738;2023-03-21T04:54:08;7.53;;;5.90;;
9413;SDS011;4746;35.664;139.738;2023-03-21T04:56:37;7.32;;;5.75;;
9413;SDS011;4746;35.664;139.738;2023-03-21T04:59:07;6.63;;;5.33;;
9413;SDS011;4746;35.664;139.738;2023-03-21T05:01:37;6.47;;;4.72;;
9413;SDS011;4746;35.664;139.738;2023-03-21T05:04:08;6.00;;;5.43;;
9413;SDS011;4746;35.664;139.738;2023-03-21T05:06:37;4.93;;;3.73;;
9413;SDS011;4746;35.664;139.738;2023-03-21T05:09:09;8.40;;;5.07;;
9413;SDS011;4746;35.664;139.738;2023-03-21T05:11:38;5.20;;;4.37;;
9413;SDS011;4746;35.664;139.738;2023-03-21T05:14:07;5.60;;;3.77;;
9413;SDS011;4746;35.664;139.738;2023-03-21T05:16:40;7.53;;;4.50;;
9413;SDS011;4746;35.664;139.738;2023-03-21T05:19:13;7.80;;;6.27;;
9413;SDS011;4746;35.664;139.738;2023-03-21T05:21:41;11.47;;;7.27;;
9413;SDS011;4746;35.664;139.738;2023-03-21T05:24:12;9.30;;;7.37;;
9413;SDS011;4746;35.664;139.738;2023-03-21T05:26:46;7.90;;;6.80;;
9413;SDS011;4746;35.664;139.738;2023-03-21T05:29:15;10.60;;;7.40;;
9413;SDS011;4746;35.664;139.738;2023-03-21T05:31:44;13.07;;;8.00;;
9413;SDS011;4746;35.664;139.738;2023-03-21T05:34:12;10.53;;;7.83;;
9413;SDS011;4746;35.664;139.738;2023-03-21T05:36:40;11.10;;;8.23;;
9413;SDS011;4746;35.664;139.738;2023-03-21T05:39:08;8.90;;;8.00;;
9413;SDS011;4746;35.664;139.738;2023-03-21T05:41:36;9.17;;;7.87;;
9413;SDS011;4746;35.664;139.738;2023-03-21T05:44:04;10.30;;;7.77;;
9413;SDS011;4746;35.664;139.738;2023-03-21T05:46:32;7.27;;;6.53;;
9413;SDS011;4746;35.664;139.738;2023-03-21T05:49:01;8.70;;;5.50;;
9413;SDS011;4746;35.664;139.738;2023-03-21T05:51:28;6.57;;;5.90;;
9413;SDS011;4746;35.664;139.738;2023-03-21T05:53:56;9.17;;;6.27;;
9413;SDS011;4746;35.664;139.738;2023-03-21T05:56:24;9.90;;;6.60;;
9413;SDS011;4746;35.664;139.738;2023-03-21T05:58:51;9.97;;;7.33;;
9413;SDS011;4746;35.664;139.738;2023-03-21T06:01:19;8.40;;;7.17;;
9413;SDS011;4746;35.664;139.738;2023-03-21T06:03:47;8.67;;;6.00;;
9413;SDS011;4746;35.664;139.738;2023-03-21T06:06:16;8.30;;;6.50;;
9413;SDS011;4746;35.664;139.738;2023-03-21T06:08:43;8.00;;;7.20;;
9413;SDS011;4746;35.664;139.738;2023-03-21T06:11:23;10.43;;;8.70;;
9413;SDS011;4746;35.664;139.738;2023-03-21T06:13:55;11.83;;;8.33;;
9413;SDS011;4746;35.664;139.738;2023-03-21T06:16:23;12.90;;;9.23;;
9413;SDS011;4746;35.664;139.738;2023-03-21T06:18:51;13.07;;;10.33;;
9413;SDS011;4746;35.664;139.738;2023-03-21T06:21:18;12.23;;;9.40;;
9413;SDS011;4746;35.664;139.738;2023-03-21T06:23:46;12.53;;;10.50;;
9413;SDS011;4746;35.664;139.738;2023-03-21T06:26:17;12.80;;;11.40;;
9413;SDS011;4746;35.664;139.738;2023-03-21T06:28:50;15.93;;;11.33;;
9413;SDS011;4746;35.664;139.738;2023-03-21T06:31:18;13.53;;;12.07;;
9413;SDS011;4746;35.664;139.738;2023-03-21T06:33:51;14.00;;;12.43;;
9413;SDS011;4746;35.664;139.738;2023-03-21T06:36:19;12.47;;;11.13;;
9413;SDS011;4746;35.664;139.738;2023-03-21T06:38:46;16.77;;;11.87;;
9413;SDS011;4746;35.664;139.738;2023-03-21T06:41:14;13.57;;;11.13;;
9413;SDS011;4746;35.664;139.738;2023-03-21T06:43:45;13.20;;;11.73;;
9413;SDS011;4746;35.664;139.738;2023-03-21T06:46:14;15.97;;;12.33;;
9413;SDS011;4746;35.664;139.738;2023-03-21T06:48:42;17.20;;;13.77;;
9413;SDS011;4746;35.664;139.738;2023-03-21T06:51:10;16.07;;;13.77;;
9413;SDS011;4746;35.664;139.738;2023-03-21T06:53:39;14.20;;;12.87;;
9413;SDS011;4746;35.664;139.738;2023-03-21T06:56:08;16.90;;;11.80;;
9413;SDS011;4746;35.664;139.738;2023-03-21T06:58:38;16.07;;;13.37;;
9413;SDS011;4746;35.664;139.738;2023-03-21T07:01:08;17.20;;;13.63;;
9413;SDS011;4746;35.664;139.738;2023-03-21T07:03:36;14.33;;;12.67;;
9413;SDS011;4746;35.664;139.738;2023-03-21T07:06:06;14.90;;;13.07;;
9413;SDS011;4746;35.664;139.738;2023-03-21T07:08:37;18.27;;;12.93;;
9413;SDS011;4746;35.664;139.738;2023-03-21T07:11:07;17.07;;;13.30;;
9413;SDS011;4746;35.664;139.738;2023-03-21T07:13:35;15.20;;;13.53;;
9413;SDS011;4746;35.664;139.738;2023-03-21T07:16:03;16.63;;;12.77;;
9413;SDS011;4746;35.664;139.738;2023-03-21T07:18:31;15.27;;;12.20;;
9413;SDS011;4746;35.664;139.738;2023-03-21T07:20:58;15.60;;;13.43;;
9413;SDS011;4746;35.664;139.738;2023-03-21T07:23:26;16.50;;;13.00;;
9413;SDS011;4746;35.664;139.738;2023-03-21T07:25:54;12.80;;;11.27;;
9413;SDS011;4746;35.664;139.738;2023-03-21T07:28:22;15.67;;;11.13;;
9413;SDS011;4746;35.664;139.738;2023-03-21T07:30:54;11.50;;;9.43;;
9413;SDS011;4746;35.664;139.738;2023-03-21T07:33:32;10.67;;;9.57;;
9413;SDS011;4746;35.664;139.738;2023-03-21T07:36:01;14.37;;;11.43;;
9413;SDS011;4746;35.664;139.738;2023-03-21T07:38:29;10.50;;;9.43;;
9413;SDS011;4746;35.664;139.738;2023-03-21T07:40:57;11.30;;;8.83;;
9413;SDS011;4746;35.664;139.738;2023-03-21T07:43:25;12.37;;;9.93;;
9413;SDS011;4746;35.664;139.738;2023-03-21T07:45:56;12.40;;;11.03;;
9413;SDS011;4746;35.664;139.738;2023-03-21T07:48:24;12.73;;;10.83;;
9413;SDS011;4746;35.664;139.738;2023-03-21T07:50:54;12.80;;;10.53;;
9413;SDS011;4746;35.664;139.738;2023-03-21T07:53:22;14.63;;;11.07;;
9413;SDS011;4746;35.664;139.738;2023-03-21T07:55:50;13.87;;;10.57;;
9413;SDS011;4746;35.664;139.738;2023-03-21T07:58:21;12.73;;;10.37;;
9413;SDS011;4746;35.664;139.738;2023-03-21T08:00:51;13.80;;;10.63;;
9413;SDS011;4746;35.664;139.738;2023-03-21T08:03:21;13.40;;;10.50;;
9413;SDS011;4746;35.664;139.738;2023-03-21T08:05:50;13.33;;;10.37;;
9413;SDS011;4746;35.664;139.738;2023-03-21T08:08:18;16.43;;;11.57;;
9413;SDS011;4746;35.664;139.738;2023-03-21T08:10:46;17.97;;;11.00;;
9413;SDS011;4746;35.664;139.738;2023-03-21T08:13:13;13.70;;;11.00;;
9413;SDS011;4746;35.664;139.738;2023-03-21T08:15:41;12.13;;;10.80;;
9413;SDS011;4746;35.664;139.738;2023-03-21T08:18:08;14.87;;;10.73;;
9413;SDS011;4746;35.664;139.738;2023-03-21T08:20:36;14.93;;;10.70;;
9413;SDS011;4746;35.664;139.738;2023-03-21T08:23:04;13.57;;;10.33;;
9413;SDS011;4746;35.664;139.738;2023-03-21T08:25:32;12.03;;;10.33;;
9413;SDS011;4746;35.664;139.738;2023-03-21T08:28:00;13.43;;;10.80;;
9413;SDS011;4746;35.664;139.738;2023-03-21T08:30:29;11.20;;;8.00;;
9413;SDS011;4746;35.664;139.738;2023-03-21T08:32:57;14.07;;;10.13;;
9413;SDS011;4746;35.664;139.738;2023-03-21T08:35:26;14.33;;;10.40;;
9413;SDS011;4746;35.664;139.738;2023-03-21T08:37:56;13.00;;;8.53;;
9413;SDS011;4746;35.664;139.738;2023-03-21T08:40:23;12.13;;;7.90;;
9413;SDS011;4746;35.664;139.738;2023-03-21T08:42:51;12.30;;;7.60;;
9413;SDS011;4746;35.664;139.738;2023-03-21T08:45:19;12.90;;;9.10;;
9413;SDS011;4746;35.664;139.738;2023-03-21T08:47:48;8.80;;;5.57;;
9413;SDS011;4746;35.664;139.738;2023-03-21T08:50:18;10.10;;;4.97;;
9413;SDS011;4746;35.664;139.738;2023-03-21T08:52:48;7.43;;;5.23;;
9413;SDS011;4746;35.664;139.738;2023-03-21T08:55:16;8.00;;;5.93;;
9413;SDS011;4746;35.664;139.738;2023-03-21T08:57:44;8.40;;;5.67;;
9413;SDS011;4746;35.664;139.738;2023-03-21T09:00:13;4.17;;;3.77;;
9413;SDS011;4746;35.664;139.738;2023-03-21T09:02:43;6.60;;;4.37;;
9413;SDS011;4746;35.664;139.738;2023-03-21T09:05:14;8.70;;;5.50;;
9413;SDS011;4746;35.664;139.738;2023-03-21T09:07:41;4.03;;;3.60;;
9413;SDS011;4746;35.664;139.738;2023-03-21T09:10:12;9.13;;;4.10;;
9413;SDS011;4746;35.664;139.738;2023-03-21T09:12:43;6.67;;;3.60;;
9413;SDS011;4746;35.664;139.738;2023-03-21T09:15:10;8.03;;;4.27;;
9413;SDS011;4746;35.664;139.738;2023-03-21T09:17:39;5.70;;;3.47;;
9413;SDS011;4746;35.664;139.738;2023-03-21T09:20:09;5.73;;;3.37;;
9413;SDS011;4746;35.664;139.738;2023-03-21T09:22:46;7.07;;;3.70;;
9413;SDS011;4746;35.664;139.738;2023-03-21T09:25:16;5.33;;;3.03;;
9413;SDS011;4746;35.664;139.738;2023-03-21T09:27:45;5.93;;;3.40;;
9413;SDS011;4746;35.664;139.738;2023-03-21T09:30:14;4.40;;;3.50;;
9413;SDS011;4746;35.664;139.738;2023-03-21T09:32:45;5.57;;;3.60;;
9413;SDS011;4746;35.664;139.738;2023-03-21T09:35:13;6.00;;;3.40;;
9413;SDS011;4746;35.664;139.738;2023-03-21T09:37:43;8.30;;;4.47;;
9413;SDS011;4746;35.664;139.738;2023-03-21T09:51:35;7.33;;;4.60;;
9413;SDS011;4746;35.664;139.738;2023-03-21T09:54:18;7.00;;;4.80;;
9413;SDS011;4746;35.664;139.738;2023-03-21T09:57:03;6.90;;;5.77;;
9413;SDS011;4746;35.664;139.738;2023-03-21T10:00:00;7.37;;;6.10;;
9413;SDS011;4746;35.664;139.738;2023-03-21T10:02:43;10.53;;;6.87;;
9413;SDS011;4746;35.664;139.738;2023-03-21T10:05:22;8.73;;;7.40;;
9413;SDS011;4746;35.664;139.738;2023-03-21T10:07:58;11.57;;;7.60;;
9413;SDS011;4746;35.664;139.738;2023-03-21T10:10:49;12.43;;;9.37;;
9413;SDS011;4746;35.664;139.738;2023-03-21T10:13:23;11.43;;;10.23;;
9413;SDS011;4746;35.664;139.738;2023-03-21T10:15:57;13.87;;;11.13;;
9413;SDS011;4746;35.664;139.738;2023-03-21T10:18:38;16.77;;;11.70;;
9413;SDS011;4746;35.664;139.738;2023-03-21T10:21:17;12.67;;;11.30;;
9413;SDS011;4746;35.664;139.738;2023-03-21T10:23:52;14.53;;;10.30;;
9413;SDS011;4746;35.664;139.738;2023-03-21T10:26:24;13.87;;;11.07;;
9413;SDS011;4746;35.664;139.738;2023-03-21T10:28:56;16.50;;;10.83;;
9413;SDS011;4746;35.664;139.738;2023-03-21T10:31:30;12.33;;;11.03;;
9413;SDS011;4746;35.664;139.738;2023-03-21T10:34:00;13.40;;;12.00;;
9413;SDS011;4746;35.664;139.738;2023-03-21T10:36:43;25.87;;;18.37;;
9413;SDS011;4746;35.664;139.738;2023-03-21T10:41:58;12.93;;;8.83;;
9413;SDS011;4746;35.664;139.738;2023-03-21T10:44:30;12.00;;;9.77;;
9413;SDS011;4746;35.664;139.738;2023-03-21T10:47:04;11.37;;;9.30;;
9413;SDS011;4746;35.664;139.738;2023-03-21T10:49:35;13.77;;;8.77;;
9413;SDS011;4746;35.664;139.738;2023-03-21T10:52:07;11.57;;;9.87;;
9413;SDS011;4746;35.664;139.738;2023-03-21T10:54:43;12.43;;;9.50;;
9413;SDS011;4746;35.664;139.738;2023-03-21T10:57:21;12.90;;;8.60;;
9413;SDS011;4746;35.664;139.738;2023-03-21T10:59:54;12.60;;;9.30;;
9413;SDS011;4746;35.664;139.738;2023-03-21T11:02:33;14.20;;;8.07;;
9413;SDS011;4746;35.664;139.738;2023-03-21T11:05:20;9.00;;;6.03;;
9413;SDS011;4746;35.664;139.738;2023-03-21T11:08:11;11.23;;;7.77;;
9413;SDS011;4746;35.664;139.738;2023-03-21T11:11:03;10.57;;;7.57;;
9413;SDS011;4746;35.664;139.738;2023-03-21T11:13:43;11.63;;;8.30;;
9413;SDS011;4746;35.664;139.738;2023-03-21T11:16:20;7.93;;;7.13;;
9413;SDS011;4746;35.664;139.738;2023-03-21T11:19:09;9.30;;;7.90;;
9413;SDS011;4746;35.664;139.738;2023-03-21T11:22:03;9.10;;;7.07;;
9413;SDS011;4746;35.664;139.738;2023-03-21T11:24:33;10.13;;;8.10;;
9413;SDS011;4746;35.664;139.738;2023-03-21T11:27:05;7.77;;;6.87;;
9413;SDS011;4746;35.664;139.738;2023-03-21T11:29:43;10.40;;;7.93;;
9413;SDS011;4746;35.664;139.738;2023-03-21T11:32:22;9.87;;;8.33;;
9413;SDS011;4746;35.664;139.738;2023-03-21T11:35:06;9.27;;;8.00;;
9413;SDS011;4746;35.664;139.738;2023-03-21T11:37:46;9.83;;;8.67;;
9413;SDS011;4746;35.664;139.738;2023-03-21T11:43:29;11.77;;;7.37;;
9413;SDS011;4746;35.664;139.738;2023-03-21T11:48:43;9.40;;;7.57;;
9413;SDS011;4746;35.664;139.738;2023-03-21T11:56:52;9.03;;;7.93;;
9413;SDS011;4746;35.664;139.738;2023-03-21T12:06:00;10.83;;;8.03;;
9413;SDS011;4746;35.664;139.738;2023-03-21T12:11:18;9.93;;;8.97;;
9413;SDS011;4746;35.664;139.738;2023-03-21T12:14:00;10.40;;;8.10;;
9413;SDS011;4746;35.664;139.738;2023-03-21T12:22:50;9.90;;;8.90;;
9413;SDS011;4746;35.664;139.738;2023-03-21T12:38:17;13.20;;;9.07;;
9413;SDS011;4746;35.664;139.738;2023-03-21T12:44:28;12.70;;;8.97;;
9413;SDS011;4746;35.664;139.738;2023-03-21T12:47:06;14.10;;;10.20;;
9413;SDS011;4746;35.664;139.738;2023-03-21T12:50:25;12.00;;;10.80;;
9413;SDS011;4746;35.664;139.738;2023-03-21T12:53:13;13.10;;;9.90;;
9413;SDS011;4746;35.664;139.738;2023-03-21T12:56:09;11.87;;;10.60;;
9413;SDS011;4746;35.664;139.738;2023-03-21T12:58:47;13.90;;;12.20;;
9413;SDS011;4746;35.664;139.738;2023-03-21T13:01:48;13.00;;;11.27;;
9413;SDS011;4746;35.664;139.738;2023-03-21T13:07:22;13.10;;;10.50;;
9413;SDS011;4746;35.664;139.738;2023-03-21T13:09:52;14.43;;;12.20;;
9413;SDS011;4746;35.664;139.738;2023-03-21T13:18:22;16.93;;;14.33;;
9413;SDS011;4746;35.664;139.738;2023-03-21T13:21:07;14.13;;;12.73;;
9413;SDS011;4746;35.664;139.738;2023-03-21T13:29:32;12.93;;;10.93;;
9413;SDS011;4746;35.664;139.738;2023-03-21T13:32:39;14.23;;;12.87;;
9413;SDS011;4746;35.664;139.738;2023-03-21T13:35:19;15.20;;;12.13;;
9413;SDS011;4746;35.664;139.738;2023-03-21T13:38:02;13.70;;;12.30;;
9413;SDS011;4746;35.664;139.738;2023-03-21T13:40:48;15.87;;;12.77;;
9413;SDS011;4746;35.664;139.738;2023-03-21T13:43:44;14.20;;;12.07;;
9413;SDS011;4746;35.664;139.738;2023-03-21T13:48:57;14.27;;;11.80;;
9413;SDS011;4746;35.664;139.738;2023-03-21T13:51:42;16.80;;;13.27;;
9413;SDS011;4746;35.664;139.738;2023-03-21T13:54:43;16.20;;;13.30;;
9413;SDS011;4746;35.664;139.738;2023-03-21T14:03:00;14.33;;;12.40;;
9413;SDS011;4746;35.664;139.738;2023-03-21T14:05:38;19.27;;;17.27;;
9413;SDS011;4746;35.664;139.738;2023-03-21T14:08:07;17.43;;;13.40;;
9413;SDS011;4746;35.664;139.738;2023-03-21T14:10:51;12.97;;;11.13;;
9413;SDS011;4746;35.664;139.738;2023-03-21T14:13:24;16.43;;;14.83;;
9413;SDS011;4746;35.664;139.738;2023-03-21T14:15:55;8.43;;;7.53;;
9413;SDS011;4746;35.664;139.738;2023-03-21T14:18:40;14.47;;;12.10;;
9413;SDS011;4746;35.664;139.738;2023-03-21T14:21:16;10.13;;;8.90;;
9413;SDS011;4746;35.664;139.738;2023-03-21T14:26:31;12.73;;;9.50;;
9413;SDS011;4746;35.664;139.738;2023-03-21T14:29:05;14.70;;;12.50;;
9413;SDS011;4746;35.664;139.738;2023-03-21T14:31:40;12.97;;;11.87;;
9413;SDS011;4746;35.664;139.738;2023-03-21T14:34:10;10.70;;;9.03;;
9413;SDS011;4746;35.664;139.738;2023-03-21T14:36:41;12.97;;;9.00;;
9413;SDS011;4746;35.664;139.738;2023-03-21T14:39:17;11.27;;;7.30;;
9413;SDS011;4746;35.664;139.738;2023-03-21T14:42:13;8.43;;;7.60;;
9413;SDS011;4746;35.664;139.738;2023-03-21T14:44:40;12.47;;;10.27;;
9413;SDS011;4746;35.664;139.738;2023-03-21T14:49:45;10.40;;;9.40;;
9413;SDS011;4746;35.664;139.738;2023-03-21T14:52:17;12.17;;;10.33;;
9413;SDS011;4746;35.664;139.738;2023-03-21T14:54:50;11.27;;;9.13;;
9413;SDS011;4746;35.664;139.738;2023-03-21T14:57:22;10.93;;;9.87;;
9413;SDS011;4746;35.664;139.738;2023-03-21T14:59:55;10.83;;;8.30;;
9413;SDS011;4746;35.664;139.738;2023-03-21T15:02:40;10.33;;;8.50;;
9413;SDS011;4746;35.664;139.738;2023-03-21T15:05:14;11.57;;;10.27;;
9413;SDS011;4746;35.664;139.738;2023-03-21T15:08:06;11.77;;;9.87;;
9413;SDS011;4746;35.664;139.738;2023-03-21T15:10:38;11.83;;;10.13;;
9413;SDS011;4746;35.664;139.738;2023-03-21T15:13:25;13.70;;;9.70;;
9413;SDS011;4746;35.664;139.738;2023-03-21T15:15:58;13.00;;;9.63;;
9413;SDS011;4746;35.664;139.738;2023-03-21T15:18:30;12.17;;;10.97;;
9413;SDS011;4746;35.664;139.738;2023-03-21T15:21:02;12.53;;;10.60;;
9413;SDS011;4746;35.664;139.738;2023-03-21T15:27:15;13.60;;;10.60;;
9413;SDS011;4746;35.664;139.738;2023-03-21T15:29:45;15.00;;;11.67;;
9413;SDS011;4746;35.664;139.738;2023-03-21T15:32:20;17.80;;;12.33;;
9413;SDS011;4746;35.664;139.738;2023-03-21T15:34:55;13.27;;;11.60;;
9413;SDS011;4746;35.664;139.738;2023-03-21T15:37:41;13.97;;;10.63;;
9413;SDS011;4746;35.664;139.738;2023-03-21T15:40:26;10.57;;;9.57;;
9413;SDS011;4746;35.664;139.738;2023-03-21T15:48:20;13.47;;;11.80;;
9413;SDS011;4746;35.664;139.738;2023-03-21T15:53:33;13.77;;;11.90;;
9413;SDS011;4746;35.664;139.738;2023-03-21T15:56:03;14.00;;;12.43;;
9413;SDS011;4746;35.664;139.738;2023-03-21T15:58:43;14.63;;;13.10;;
9413;SDS011;4746;35.664;139.738;2023-03-21T16:01:17;12.70;;;11.50;;
9413;SDS011;4746;35.664;139.738;2023-03-21T16:03:57;13.43;;;12.07;;
9413;SDS011;4746;35.664;139.738;2023-03-21T16:06:37;12.93;;;11.63;;
9413;SDS011;4746;35.664;139.738;2023-03-21T16:09:18;13.57;;;12.27;;
9413;SDS011;4746;35.664;139.738;2023-03-21T16:14:20;15.03;;;12.40;;
9413;SDS011;4746;35.664;139.738;2023-03-21T16:16:51;13.93;;;12.43;;
9413;SDS011;4746;35.664;139.738;2023-03-21T16:19:19;13.87;;;12.37;;
9413;SDS011;4746;35.664;139.738;2023-03-21T16:21:49;18.00;;;12.47;;
9413;SDS011;4746;35.664;139.738;2023-03-21T16:24:17;14.93;;;13.50;;
9413;SDS011;4746;35.664;139.738;2023-03-21T16:26:45;14.50;;;13.00;;
9413;SDS011;4746;35.664;139.738;2023-03-21T16:29:17;15.03;;;13.17;;
9413;SDS011;4746;35.664;139.738;2023-03-21T16:31:45;16.53;;;14.80;;
9413;SDS011;4746;35.664;139.738;2023-03-21T16:34:16;15.47;;;13.90;;
9413;SDS011;4746;35.664;139.738;2023-03-21T16:36:44;14.73;;;13.17;;
9413;SDS011;4746;35.664;139.738;2023-03-21T16:41:48;15.03;;;12.27;;
9413;SDS011;4746;35.664;139.738;2023-03-21T16:44:16;13.83;;;12.43;;
9413;SDS011;4746;35.664;139.738;2023-03-21T16:46:45;14.23;;;12.43;;
9413;SDS011;4746;35.664;139.738;2023-03-21T16:49:18;14.57;;;11.63;;
9413;SDS011;4746;35.664;139.738;2023-03-21T16:51:49;13.73;;;12.33;;
9413;SDS011;4746;35.664;139.738;2023-03-21T16:54:18;13.67;;;12.33;;
9413;SDS011;4746;35.664;139.738;2023-03-21T16:56:50;13.77;;;12.37;;
9413;SDS011;4746;35.664;139.738;2023-03-21T16:59:21;12.43;;;11.33;;
9413;SDS011;4746;35.664;139.738;2023-03-21T17:01:49;15.70;;;12.07;;
9413;SDS011;4746;35.664;139.738;2023-03-21T17:04:16;13.80;;;12.37;;
9413;SDS011;4746;35.664;139.738;2023-03-21T17:06:47;13.80;;;12.50;;
9413;SDS011;4746;35.664;139.738;2023-03-21T17:09:22;15.53;;;13.27;;
9413;SDS011;4746;35.664;139.738;2023-03-21T17:11:51;14.40;;;12.63;;
9413;SDS011;4746;35.664;139.738;2023-03-21T17:14:19;16.20;;;14.60;;
9413;SDS011;4746;35.664;139.738;2023-03-21T17:16:47;16.20;;;14.50;;
9413;SDS011;4746;35.664;139.738;2023-03-21T17:19:16;16.70;;;14.97;;
9413;SDS011;4746;35.664;139.738;2023-03-21T17:21:50;16.73;;;14.97;;
9413;SDS011;4746;35.664;139.738;2023-03-21T17:24:19;18.17;;;15.60;;